createdAt,value
2018-09-16T00:00:20.638Z,4.30
2018-09-16T00:02:53.042Z,4.20
2018-09-16T00:05:25.466Z,4.40
2018-09-16T00:07:57.873Z,4.20
2018-09-16T00:10:30.290Z,3.70
2018-09-16T00:13:02.686Z,4.33
2018-09-16T00:15:35.125Z,3.70
2018-09-16T00:18:07.532Z,4.00
2018-09-16T00:20:39.966Z,3.90
2018-09-16T00:23:12.645Z,3.50
2018-09-16T00:25:45.070Z,3.73
2018-09-16T00:28:17.533Z,4.30
2018-09-16T00:30:49.914Z,3.70
2018-09-16T00:33:22.336Z,3.90
2018-09-16T00:35:54.794Z,3.80
2018-09-16T00:38:27.204Z,4.07
2018-09-16T00:40:59.630Z,4.53
2018-09-16T00:43:32.038Z,4.40
2018-09-16T00:46:04.486Z,3.93
2018-09-16T00:48:36.975Z,4.10
2018-09-16T00:51:09.414Z,3.50
2018-09-16T00:53:41.824Z,3.83
2018-09-16T00:56:14.295Z,4.00
2018-09-16T00:58:46.701Z,3.87
2018-09-16T01:01:19.122Z,3.70
2018-09-16T01:03:51.526Z,3.63
2018-09-16T01:06:23.950Z,3.60
2018-09-16T01:08:56.349Z,3.87
2018-09-16T01:11:28.759Z,3.80
2018-09-16T01:14:01.154Z,4.10
2018-09-16T01:16:33.576Z,3.83
2018-09-16T01:19:06.030Z,4.50
2018-09-16T01:21:38.438Z,3.93
2018-09-16T01:24:10.850Z,4.10
2018-09-16T01:26:43.269Z,3.60
2018-09-16T01:29:15.775Z,3.80
2018-09-16T01:31:48.196Z,3.40
2018-09-16T01:34:20.594Z,3.90
2018-09-16T01:36:52.997Z,3.87
2018-09-16T01:39:25.467Z,4.13
2018-09-16T01:41:57.878Z,4.10
2018-09-16T01:44:30.282Z,3.60
2018-09-16T01:47:02.747Z,4.20
2018-09-16T01:49:35.436Z,3.90
2018-09-16T01:52:07.834Z,3.83
2018-09-16T01:54:40.243Z,3.80
2018-09-16T01:57:12.647Z,3.87
2018-09-16T01:59:45.046Z,3.80
2018-09-16T02:02:17.456Z,4.20
2018-09-16T02:04:49.882Z,3.77
2018-09-16T02:07:22.298Z,4.20
2018-09-16T02:09:54.703Z,3.83
2018-09-16T02:12:27.157Z,4.43
2018-09-16T02:14:59.547Z,3.83
2018-09-16T02:17:31.958Z,4.70
2018-09-16T02:20:04.381Z,4.40
2018-09-16T02:22:36.806Z,4.27
2018-09-16T02:25:09.209Z,4.20
2018-09-16T02:27:41.612Z,4.37
2018-09-16T02:30:14.005Z,4.40
2018-09-16T02:32:46.420Z,4.50
2018-09-16T02:35:18.863Z,4.43
2018-09-16T02:37:51.671Z,3.73
2018-09-16T02:40:24.095Z,4.17
2018-09-16T02:42:56.508Z,4.30
2018-09-16T02:45:28.893Z,4.03
2018-09-16T02:48:01.298Z,3.80
2018-09-16T02:50:33.692Z,4.03
2018-09-16T02:53:06.097Z,4.17
2018-09-16T02:55:38.495Z,4.30
2018-09-16T02:58:10.902Z,4.37
2018-09-16T03:00:43.358Z,3.97
2018-09-16T03:03:15.722Z,3.80
2018-09-16T03:05:48.139Z,3.90
2018-09-16T03:08:20.569Z,3.70
2018-09-16T03:10:52.961Z,4.10
2018-09-16T03:13:25.382Z,3.80
2018-09-16T03:15:57.802Z,3.93
2018-09-16T03:18:30.222Z,4.43
2018-09-16T03:21:02.621Z,3.80
2018-09-16T03:23:35.042Z,3.47
2018-09-16T03:26:07.470Z,3.97
2018-09-16T03:28:39.894Z,3.93
2018-09-16T03:31:12.302Z,4.30
2018-09-16T03:33:44.960Z,3.90
2018-09-16T03:36:17.362Z,4.13
2018-09-16T03:38:49.781Z,4.17
2018-09-16T03:41:22.233Z,3.73
2018-09-16T03:43:54.662Z,3.63
2018-09-16T03:46:27.062Z,3.80
2018-09-16T03:48:59.490Z,4.50
2018-09-16T03:51:31.929Z,3.67
2018-09-16T03:54:04.602Z,3.80
2018-09-16T03:56:37.005Z,3.80
2018-09-16T03:59:09.457Z,4.00
2018-09-16T04:01:41.883Z,4.17
2018-09-16T04:04:14.306Z,3.73
2018-09-16T04:06:46.742Z,4.00
2018-09-16T04:09:19.146Z,3.93
2018-09-16T04:11:51.559Z,4.23
2018-09-16T04:14:23.969Z,4.30
2018-09-16T04:16:56.372Z,4.43
2018-09-16T04:19:28.782Z,4.13
2018-09-16T04:22:01.203Z,4.00
2018-09-16T04:24:33.634Z,4.20
2018-09-16T04:27:06.044Z,4.00
2018-09-16T04:29:38.454Z,3.90
2018-09-16T04:32:10.853Z,4.03
2018-09-16T04:34:43.290Z,4.40
2018-09-16T04:37:15.694Z,3.90
2018-09-16T04:39:48.942Z,4.17
2018-09-16T04:42:21.346Z,4.13
2018-09-16T04:44:53.792Z,4.43
2018-09-16T04:47:26.182Z,4.60
2018-09-16T04:49:58.809Z,3.60
2018-09-16T04:52:31.130Z,3.77
2018-09-16T04:55:03.590Z,4.00
2018-09-16T04:57:35.994Z,4.20
2018-09-16T05:00:09.336Z,4.50
2018-09-16T05:02:41.830Z,4.30
2018-09-16T05:05:14.242Z,4.00
2018-09-16T05:07:46.643Z,4.30
2018-09-16T05:10:19.067Z,3.90
2018-09-16T05:12:51.454Z,3.90
2018-09-16T05:15:23.858Z,3.93
2018-09-16T05:17:56.258Z,4.10
2018-09-16T05:20:28.658Z,4.00
2018-09-16T05:23:01.069Z,4.20
2018-09-16T05:25:33.478Z,4.00
2018-09-16T05:28:05.870Z,3.73
2018-09-16T05:30:38.271Z,3.77
2018-09-16T05:33:10.699Z,3.77
2018-09-16T05:35:43.098Z,4.13
2018-09-16T05:38:15.494Z,3.80
2018-09-16T05:40:47.921Z,3.87
2018-09-16T05:43:20.358Z,3.77
2018-09-16T05:45:52.756Z,4.33
2018-09-16T05:48:25.195Z,3.80
2018-09-16T05:50:57.592Z,3.50
2018-09-16T05:53:30.197Z,3.87
2018-09-16T05:56:02.545Z,3.53
2018-09-16T05:58:34.958Z,3.80
2018-09-16T06:01:07.357Z,3.33
2018-09-16T06:03:39.806Z,3.97
2018-09-16T06:06:12.222Z,3.57
2018-09-16T06:08:44.629Z,3.30
2018-09-16T06:11:17.009Z,3.47
2018-09-16T06:13:49.422Z,3.30
2018-09-16T06:16:21.818Z,2.73
2018-09-16T06:18:54.253Z,3.00
2018-09-16T06:21:26.634Z,3.13
2018-09-16T06:23:59.082Z,3.13
2018-09-16T06:26:31.478Z,2.87
2018-09-16T06:29:10.538Z,2.70
2018-09-16T06:31:42.937Z,2.70
2018-09-16T06:34:15.345Z,2.90
2018-09-16T06:36:47.755Z,3.40
2018-09-16T06:39:20.159Z,2.60
2018-09-16T06:41:52.558Z,2.70
2018-09-16T06:44:24.970Z,3.07
2018-09-16T06:46:57.371Z,2.65
2018-09-16T06:49:29.790Z,2.98
2018-09-16T06:52:02.194Z,2.55
2018-09-16T06:54:34.658Z,2.92
2018-09-16T06:57:07.077Z,2.50
2018-09-16T06:59:39.718Z,2.50
2018-09-16T07:02:12.114Z,2.80
2018-09-16T07:04:44.551Z,2.70
2018-09-16T07:07:16.949Z,3.02
2018-09-16T07:09:49.363Z,2.72
2018-09-16T07:12:21.774Z,3.30
2018-09-16T07:14:54.241Z,2.70
2018-09-16T07:17:26.644Z,3.08
2018-09-16T07:19:59.101Z,2.72
2018-09-16T07:22:31.507Z,2.72
2018-09-16T07:25:04.122Z,2.90
2018-09-16T07:27:37.552Z,3.05
2018-09-16T07:30:09.958Z,3.22
2018-09-16T07:32:42.197Z,3.42
2018-09-16T07:35:14.621Z,4.50
2018-09-16T07:37:47.295Z,3.87
2018-09-16T07:40:19.751Z,2.90
2018-09-16T07:42:52.173Z,3.27
2018-09-16T07:45:24.591Z,2.90
2018-09-16T07:47:56.995Z,3.02
2018-09-16T07:50:29.409Z,2.70
2018-09-16T07:53:01.877Z,3.12
2018-09-16T07:55:34.250Z,3.00
2018-09-16T07:58:06.670Z,3.53
2018-09-16T08:00:39.164Z,3.00
2018-09-16T08:03:11.506Z,2.90
2018-09-16T08:05:44.006Z,3.30
2018-09-16T08:08:16.358Z,3.10
2018-09-16T08:10:48.874Z,3.30
2018-09-16T08:13:21.277Z,3.60
2018-09-16T08:15:53.690Z,3.47
2018-09-16T08:18:26.103Z,2.90
2018-09-16T08:20:58.557Z,11.50
2018-09-16T08:23:30.942Z,3.80
2018-09-16T08:26:03.489Z,3.70
2018-09-16T08:28:35.953Z,3.47
2018-09-16T08:31:08.326Z,3.40
2018-09-16T08:33:47.374Z,3.17
2018-09-16T08:36:19.801Z,2.97
2018-09-16T08:38:52.201Z,3.10
2018-09-16T08:41:24.622Z,3.37
2018-09-16T08:43:57.054Z,3.07
2018-09-16T08:46:29.466Z,2.53
2018-09-16T08:49:01.861Z,3.27
2018-09-16T08:51:34.281Z,3.33
2018-09-16T08:54:13.298Z,3.10
2018-09-16T08:56:45.726Z,3.23
2018-09-16T08:59:18.143Z,3.00
2018-09-16T09:01:50.560Z,2.83
2018-09-16T09:04:22.991Z,3.10
2018-09-16T09:06:55.402Z,2.90
2018-09-16T09:09:27.807Z,2.70
2018-09-16T09:12:00.222Z,3.00
2018-09-16T09:14:32.618Z,2.63
2018-09-16T09:17:05.164Z,3.13
2018-09-16T09:19:37.614Z,3.10
2018-09-16T09:22:10.034Z,2.70
2018-09-16T09:24:42.433Z,2.80
2018-09-16T09:27:14.845Z,3.10
2018-09-16T09:29:47.252Z,2.60
2018-09-16T09:32:19.666Z,2.40
2018-09-16T09:34:52.087Z,2.73
2018-09-16T09:37:24.486Z,2.80
2018-09-16T09:39:56.933Z,2.40
2018-09-16T09:42:29.611Z,2.57
2018-09-16T09:45:02.010Z,2.60
2018-09-16T09:47:34.450Z,2.40
2018-09-16T09:50:06.849Z,2.67
2018-09-16T09:52:39.269Z,2.53
2018-09-16T09:55:11.661Z,2.40
2018-09-16T09:57:44.074Z,2.50
2018-09-16T10:00:16.475Z,2.23
2018-09-16T10:02:49.198Z,2.33
2018-09-16T10:05:21.670Z,2.50
2018-09-16T10:07:54.095Z,2.00
2018-09-16T10:10:26.558Z,2.20
2018-09-16T10:12:58.961Z,1.83
2018-09-16T10:15:31.363Z,1.83
2018-09-16T10:18:03.993Z,2.30
2018-09-16T10:20:36.389Z,2.20
2018-09-16T10:23:08.790Z,2.07
2018-09-16T10:25:41.182Z,2.20
2018-09-16T10:28:13.590Z,1.83
2018-09-16T10:30:45.989Z,2.03
2018-09-16T10:33:18.394Z,2.00
2018-09-16T10:35:50.871Z,1.90
2018-09-16T10:38:23.295Z,2.30
2018-09-16T10:40:55.674Z,2.20
2018-09-16T10:43:28.165Z,1.80
2018-09-16T10:46:00.578Z,1.93
2018-09-16T10:48:32.985Z,2.10
2018-09-16T10:51:05.417Z,2.20
2018-09-16T10:53:37.819Z,1.93
2018-09-16T10:56:10.237Z,2.47
2018-09-16T10:58:42.651Z,2.10
2018-09-16T11:01:15.039Z,2.10
2018-09-16T11:03:47.449Z,1.97
2018-09-16T11:06:19.874Z,1.80
2018-09-16T11:08:52.325Z,1.70
2018-09-16T11:11:24.736Z,2.00
2018-09-16T11:13:57.186Z,1.80
2018-09-16T11:16:29.574Z,1.90
2018-09-16T11:19:02.087Z,1.53
2018-09-16T11:21:34.530Z,1.87
2018-09-16T11:24:06.959Z,1.72
2018-09-16T11:26:39.345Z,1.30
2018-09-16T11:29:11.758Z,1.50
2018-09-16T11:31:44.182Z,1.50
2018-09-16T11:34:16.569Z,1.45
2018-09-16T11:36:48.987Z,1.77
2018-09-16T11:39:21.377Z,1.90
2018-09-16T11:41:53.781Z,1.70
2018-09-16T11:44:26.186Z,1.82
2018-09-16T11:46:58.585Z,2.00
2018-09-16T11:49:30.989Z,1.90
2018-09-16T11:52:03.400Z,1.67
2018-09-16T11:54:35.790Z,1.80
2018-09-16T11:57:08.506Z,1.73
2018-09-16T11:59:40.921Z,1.53
2018-09-16T12:02:13.341Z,1.80
2018-09-16T12:04:45.738Z,1.67
2018-09-16T12:07:18.150Z,2.20
2018-09-16T12:09:50.547Z,1.73
2018-09-16T12:12:22.954Z,1.57
2018-09-16T12:14:55.353Z,1.67
2018-09-16T12:17:27.762Z,1.60
2018-09-16T12:20:00.161Z,1.50
2018-09-16T12:22:32.575Z,1.53
2018-09-16T12:25:04.982Z,1.37
2018-09-16T12:27:37.656Z,1.83
2018-09-16T12:30:10.058Z,1.60
2018-09-16T12:32:42.497Z,1.60
2018-09-16T12:35:15.173Z,1.43
2018-09-16T12:37:47.583Z,1.50
2018-09-16T12:40:19.985Z,1.70
2018-09-16T12:42:52.390Z,1.70
2018-09-16T12:45:24.887Z,1.60
2018-09-16T12:47:57.447Z,2.10
2018-09-16T12:50:29.845Z,1.90
2018-09-16T12:53:02.246Z,1.53
2018-09-16T12:55:34.639Z,1.60
2018-09-16T12:58:07.058Z,1.70
2018-09-16T13:00:39.780Z,1.43
2018-09-16T13:03:12.431Z,1.70
2018-09-16T13:05:44.845Z,1.60
2018-09-16T13:08:17.258Z,1.70
2018-09-16T13:10:49.649Z,1.60
2018-09-16T13:13:22.162Z,1.70
2018-09-16T13:15:54.498Z,1.60
2018-09-16T13:18:26.914Z,1.47
2018-09-16T13:20:59.334Z,1.80
2018-09-16T13:23:31.773Z,1.73
2018-09-16T13:26:04.203Z,1.60
2018-09-16T13:28:36.677Z,1.67
2018-09-16T13:31:09.022Z,1.72
2018-09-16T13:33:41.446Z,1.60
2018-09-16T13:36:13.866Z,1.57
2018-09-16T13:38:46.315Z,1.60
2018-09-16T13:41:18.958Z,1.37
2018-09-16T13:43:51.369Z,1.53
2018-09-16T13:46:23.782Z,1.60
2018-09-16T13:48:56.212Z,1.70
2018-09-16T13:51:28.614Z,1.67
2018-09-16T13:54:01.036Z,1.53
2018-09-16T13:56:33.452Z,1.33
2018-09-16T13:59:05.861Z,1.43
2018-09-16T14:01:38.274Z,1.37
2018-09-16T14:04:10.710Z,1.50
2018-09-16T14:06:43.166Z,1.73
2018-09-16T14:09:15.592Z,1.65
2018-09-16T14:11:47.978Z,1.92
2018-09-16T14:14:20.395Z,1.50
2018-09-16T14:16:52.802Z,1.40
2018-09-16T14:19:25.226Z,1.30
2018-09-16T14:21:57.623Z,1.83
2018-09-16T14:24:30.030Z,1.33
2018-09-16T14:27:02.455Z,1.57
2018-09-16T14:29:34.874Z,1.70
2018-09-16T14:32:07.271Z,1.40
2018-09-16T14:34:39.690Z,1.40
2018-09-16T14:37:12.087Z,1.70
2018-09-16T14:39:44.494Z,1.70
2018-09-16T14:42:16.897Z,2.10
2018-09-16T14:44:49.294Z,1.75
2018-09-16T14:47:21.694Z,1.45
2018-09-16T14:49:54.118Z,1.65
2018-09-16T14:52:26.505Z,1.50
2018-09-16T14:54:58.918Z,1.40
2018-09-16T14:57:31.312Z,1.60
2018-09-16T15:00:03.755Z,1.40
2018-09-16T15:02:36.153Z,1.50
2018-09-16T15:05:08.589Z,1.35
2018-09-16T15:07:41.050Z,1.22
2018-09-16T15:10:13.414Z,1.32
2018-09-16T15:12:45.843Z,1.25
2018-09-16T15:15:18.283Z,1.50
2018-09-16T15:17:50.741Z,2.80
2018-09-16T15:20:23.158Z,1.80
2018-09-16T15:22:55.565Z,1.35
2018-09-16T15:25:27.973Z,1.70
2018-09-16T15:28:00.369Z,1.20
2018-09-16T15:30:32.819Z,1.50
2018-09-16T15:33:05.416Z,1.52
2018-09-16T15:35:37.851Z,1.57
2018-09-16T15:38:10.246Z,1.63
2018-09-16T15:40:42.658Z,1.50
2018-09-16T15:43:15.102Z,1.57
2018-09-16T15:45:47.531Z,1.60
2018-09-16T15:48:20.000Z,1.47
2018-09-16T15:50:52.342Z,1.80
2018-09-16T15:53:24.754Z,1.67
2018-09-16T15:55:57.166Z,1.60
2018-09-16T15:58:29.569Z,1.37
2018-09-16T16:01:01.993Z,1.40
2018-09-16T16:03:34.492Z,1.67
2018-09-16T16:06:06.914Z,1.50
2018-09-16T16:08:39.404Z,1.50
2018-09-16T16:11:11.879Z,1.77
2018-09-16T16:13:51.005Z,1.57
2018-09-16T16:16:23.505Z,1.77
2018-09-16T16:18:55.834Z,1.70
2018-09-16T16:21:28.238Z,1.67
2018-09-16T16:24:00.653Z,1.60
2018-09-16T16:26:33.094Z,1.80
2018-09-16T16:29:05.613Z,1.60
2018-09-16T16:31:38.030Z,1.80
2018-09-16T16:34:10.431Z,1.80
2018-09-16T16:36:42.878Z,1.83
2018-09-16T16:39:15.302Z,1.95
2018-09-16T16:41:47.718Z,2.00
2018-09-16T16:44:20.122Z,1.90
2018-09-16T16:46:52.573Z,1.83
2018-09-16T16:49:24.990Z,1.82
2018-09-16T16:51:57.414Z,2.00
2018-09-16T16:54:29.809Z,2.00
2018-09-16T16:57:02.273Z,1.90
2018-09-16T16:59:34.784Z,2.37
2018-09-16T17:02:07.202Z,1.90
2018-09-16T17:04:39.639Z,2.23
2018-09-16T17:07:12.328Z,2.70
2018-09-16T17:09:44.746Z,3.40
2018-09-16T17:12:17.325Z,3.10
2018-09-16T17:14:49.737Z,4.53
2018-09-16T17:17:22.171Z,4.80
2018-09-16T17:19:54.572Z,5.30
2018-09-16T17:22:27.002Z,4.47
2018-09-16T17:24:59.394Z,4.13
2018-09-16T17:27:31.823Z,3.70
2018-09-16T17:30:04.496Z,3.47
2018-09-16T17:32:36.983Z,3.23
2018-09-16T17:35:09.398Z,2.80
2018-09-16T17:37:41.828Z,3.50
2018-09-16T17:40:14.232Z,3.17
2018-09-16T17:42:46.680Z,3.43
2018-09-16T17:45:19.095Z,3.30
2018-09-16T17:47:51.545Z,3.40
2018-09-16T17:50:23.950Z,3.00
2018-09-16T17:52:56.370Z,3.43
2018-09-16T17:55:28.793Z,3.10
2018-09-16T17:58:01.234Z,3.73
2018-09-16T18:00:33.649Z,3.50
2018-09-16T18:03:06.064Z,4.10
2018-09-16T18:05:38.502Z,4.13
2018-09-16T18:08:10.930Z,3.90
2018-09-16T18:10:43.658Z,4.03
2018-09-16T18:13:16.156Z,3.67
2018-09-16T18:15:48.562Z,4.00
2018-09-16T18:18:20.965Z,3.90
2018-09-16T18:20:53.392Z,4.37
2018-09-16T18:23:25.795Z,3.93
2018-09-16T18:25:58.217Z,4.80
2018-09-16T18:28:30.622Z,4.33
2018-09-16T18:31:03.045Z,4.47
2018-09-16T18:33:35.490Z,5.67
2018-09-16T18:36:07.977Z,5.37
2018-09-16T18:38:40.322Z,5.17
2018-09-16T18:41:12.750Z,5.33
2018-09-16T18:43:45.139Z,5.30
2018-09-16T18:46:17.555Z,5.50
2018-09-16T18:48:49.962Z,5.33
2018-09-16T18:51:22.378Z,7.17
2018-09-16T18:53:54.793Z,7.60
2018-09-16T18:56:27.226Z,7.50
2018-09-16T18:58:59.635Z,6.27
2018-09-16T19:01:32.050Z,5.83
2018-09-16T19:04:04.553Z,5.47
2018-09-16T19:06:36.961Z,6.60
2018-09-16T19:09:09.366Z,8.33
2018-09-16T19:11:41.790Z,9.00
2018-09-16T19:14:14.196Z,6.43
2018-09-16T19:16:46.609Z,6.63
2018-09-16T19:19:19.009Z,5.80
2018-09-16T19:21:51.454Z,5.53
2018-09-16T19:24:23.859Z,5.03
2018-09-16T19:26:56.274Z,4.10
2018-09-16T19:29:28.778Z,3.40
2018-09-16T19:32:01.207Z,3.07
2018-09-16T19:34:33.686Z,3.40
2018-09-16T19:37:06.130Z,2.90
2018-09-16T19:39:38.617Z,2.90
2018-09-16T19:42:11.026Z,3.07
2018-09-16T19:44:43.425Z,2.90
2018-09-16T19:47:15.842Z,3.03
2018-09-16T19:49:48.245Z,3.80
2018-09-16T19:52:20.699Z,3.37
2018-09-16T19:54:53.089Z,4.07
2018-09-16T19:57:25.586Z,3.60
2018-09-16T19:59:58.153Z,3.00
2018-09-16T20:02:30.537Z,2.97
2018-09-16T20:05:02.963Z,3.03
2018-09-16T20:07:35.370Z,3.70
2018-09-16T20:10:07.770Z,3.20
2018-09-16T20:12:40.187Z,3.40
2018-09-16T20:15:12.585Z,2.77
2018-09-16T20:17:45.028Z,3.23
2018-09-16T20:20:17.540Z,3.40
2018-09-16T20:22:49.981Z,3.20
2018-09-16T20:25:22.388Z,2.97
2018-09-16T20:27:54.799Z,3.20
2018-09-16T20:30:27.194Z,3.40
2018-09-16T20:32:59.622Z,3.60
2018-09-16T20:35:32.038Z,3.50
2018-09-16T20:38:04.482Z,3.17
2018-09-16T20:40:36.870Z,2.90
2018-09-16T20:43:09.286Z,2.83
2018-09-16T20:45:41.682Z,3.03
2018-09-16T20:48:14.101Z,3.40
2018-09-16T20:50:46.575Z,2.93
2018-09-16T20:53:19.005Z,3.50
2018-09-16T20:55:51.418Z,3.23
2018-09-16T20:58:23.890Z,3.00
2018-09-16T21:00:56.290Z,3.17
2018-09-16T21:03:28.718Z,3.30
2018-09-16T21:06:01.125Z,3.57
2018-09-16T21:08:33.530Z,3.53
2018-09-16T21:11:05.926Z,3.37
2018-09-16T21:13:38.333Z,3.50
2018-09-16T21:16:10.717Z,4.03
2018-09-16T21:18:43.114Z,3.23
2018-09-16T21:21:15.510Z,3.50
2018-09-16T21:23:47.926Z,4.20
2018-09-16T21:26:20.376Z,3.73
2018-09-16T21:28:52.862Z,3.67
2018-09-16T21:31:25.257Z,3.70
2018-09-16T21:33:57.724Z,3.33
2018-09-16T21:36:30.121Z,3.67
2018-09-16T21:39:02.654Z,3.53
2018-09-16T21:41:35.054Z,3.93
2018-09-16T21:44:07.711Z,3.33
2018-09-16T21:46:40.102Z,4.03
2018-09-16T21:49:12.527Z,3.93
2018-09-16T21:51:44.927Z,3.73
2018-09-16T21:54:17.351Z,4.10
2018-09-16T21:56:49.746Z,3.73
2018-09-16T21:59:22.162Z,3.83
2018-09-16T22:01:54.617Z,3.20
2018-09-16T22:04:27.039Z,3.43
2018-09-16T22:06:59.467Z,3.97
2018-09-16T22:09:31.892Z,3.90
2018-09-16T22:12:04.312Z,3.77
2018-09-16T22:14:36.810Z,3.77
2018-09-16T22:17:09.223Z,3.33
2018-09-16T22:19:41.644Z,3.83
2018-09-16T22:22:14.042Z,3.17
2018-09-16T22:24:46.492Z,3.50
2018-09-16T22:27:18.882Z,3.73
2018-09-16T22:29:51.320Z,3.80
2018-09-16T22:32:23.737Z,3.43
2018-09-16T22:34:56.230Z,3.43
2018-09-16T22:37:28.625Z,3.77
2018-09-16T22:40:01.038Z,3.90
2018-09-16T22:42:33.454Z,3.37
2018-09-16T22:45:05.879Z,4.20
2018-09-16T22:47:38.286Z,3.77
2018-09-16T22:50:10.710Z,3.50
2018-09-16T22:52:43.109Z,3.73
2018-09-16T22:55:15.522Z,3.30
2018-09-16T22:57:47.955Z,3.63
2018-09-16T23:00:20.389Z,3.97
2018-09-16T23:02:52.789Z,3.87
2018-09-16T23:05:25.217Z,3.83
2018-09-16T23:07:57.615Z,3.43
2018-09-16T23:10:30.056Z,3.40
2018-09-16T23:13:02.558Z,3.60
2018-09-16T23:15:34.961Z,3.77
2018-09-16T23:18:07.719Z,3.60
2018-09-16T23:20:40.146Z,3.60
2018-09-16T23:23:12.554Z,3.53
2018-09-16T23:25:44.958Z,3.73
2018-09-16T23:28:17.350Z,3.47
2018-09-16T23:30:49.758Z,3.67
2018-09-16T23:33:22.170Z,3.67
2018-09-16T23:35:54.602Z,3.67
2018-09-16T23:38:27.005Z,3.20
2018-09-16T23:40:59.419Z,3.50
2018-09-16T23:43:31.828Z,3.80
2018-09-16T23:46:04.237Z,3.27
2018-09-16T23:48:36.638Z,3.23
2018-09-16T23:51:09.055Z,3.50
2018-09-16T23:53:41.730Z,3.73
2018-09-16T23:56:14.199Z,3.60
2018-09-16T23:58:46.604Z,3.47
